Time;durP1;ratioP1;P1;durP2;ratioP2;P2;SDS_P1;SDS_P2;PMS_P1;PMS_P2;Temp;Humidity;BMP_temperature;BMP_pressure;BME280_temperature;BME280_humidity;BME280_pressure;Samples;Min_cycle;Max_cycle;Signal;HPM_P1;HPM_P2
2022/08/06 00:01:09;;;;;;;5.00;4.18;;;21.80;99.90;;;;;;5092008;28;20043;-77
2022/08/06 00:03:34;;;;;;;4.72;4.00;;;21.70;99.90;;;;;;5092754;28;20067;-76
2022/08/06 00:06:00;;;;;;;4.47;4.07;;;21.70;99.90;;;;;;5095368;28;20028;-77
2022/08/06 00:08:26;;;;;;;4.75;3.83;;;21.70;99.90;;;;;;5094957;28;20024;-76
2022/08/06 00:10:51;;;;;;;5.65;4.20;;;21.70;99.90;;;;;;5095421;28;20121;-76
2022/08/06 00:13:18;;;;;;;4.82;3.97;;;21.70;99.90;;;;;;5095307;28;20027;-76
2022/08/06 00:15:44;;;;;;;7.82;4.05;;;21.60;99.90;;;;;;5094487;28;20108;-76
2022/08/06 00:18:10;;;;;;;4.55;4.00;;;21.60;99.90;;;;;;5095081;28;20024;-77
2022/08/06 00:20:36;;;;;;;9.10;4.25;;;21.60;99.90;;;;;;5076469;28;20121;-78
2022/08/06 00:23:02;;;;;;;4.63;4.22;;;21.60;99.90;;;;;;5095054;28;20024;-77
2022/08/06 00:25:29;;;;;;;4.90;4.40;;;21.60;99.90;;;;;;5094982;28;20024;-76
2022/08/06 00:27:54;;;;;;;6.93;4.10;;;21.60;99.90;;;;;;5076729;28;20638;-76
2022/08/06 00:30:20;;;;;;;4.57;3.92;;;21.60;99.90;;;;;;5094908;28;20030;-77
2022/08/06 00:32:47;;;;;;;5.88;5.15;;;21.70;99.90;;;;;;5094795;28;20099;-77
2022/08/06 00:35:12;;;;;;;6.30;4.82;;;21.70;99.90;;;;;;5094526;28;20038;-77
2022/08/06 00:37:38;;;;;;;7.88;5.30;;;21.60;99.90;;;;;;5094874;28;20028;-77
2022/08/06 00:40:05;;;;;;;9.55;6.15;;;21.60;99.90;;;;;;5094396;28;20020;-77
2022/08/06 00:42:30;;;;;;;5.13;4.65;;;21.60;99.90;;;;;;5094645;28;20377;-76
2022/08/06 00:44:56;;;;;;;8.23;6.88;;;21.60;99.90;;;;;;5094766;28;20028;-76
2022/08/06 00:47:21;;;;;;;8.88;5.35;;;21.60;99.90;;;;;;5094401;28;20036;-76
2022/08/06 00:49:47;;;;;;;5.40;4.30;;;21.60;99.90;;;;;;5094703;28;20028;-75
2022/08/06 00:52:13;;;;;;;3.50;3.17;;;21.60;99.90;;;;;;5094456;28;20024;-75
2022/08/06 00:54:39;;;;;;;4.32;3.92;;;21.60;99.90;;;;;;5075716;28;20028;-77
2022/08/06 00:57:05;;;;;;;5.07;4.38;;;21.50;99.90;;;;;;5094336;28;20088;-74
2022/08/06 00:59:31;;;;;;;4.65;4.25;;;21.50;99.90;;;;;;5094401;28;20020;-75
2022/08/06 01:01:56;;;;;;;7.32;5.30;;;21.40;99.90;;;;;;5094199;28;20020;-74
2022/08/06 01:04:22;;;;;;;7.78;4.78;;;21.30;99.90;;;;;;5094223;28;20028;-76
2022/08/06 01:06:48;;;;;;;4.80;4.35;;;21.30;99.90;;;;;;5094187;28;20024;-77
2022/08/06 01:09:13;;;;;;;4.57;4.18;;;21.30;99.90;;;;;;5094033;28;20024;-76
2022/08/06 01:11:39;;;;;;;8.07;4.88;;;21.20;99.90;;;;;;5093992;28;20042;-75
2022/08/06 01:14:06;;;;;;;4.50;4.18;;;21.20;99.90;;;;;;5094085;28;20032;-75
2022/08/06 01:16:49;;;;;;;4.65;4.13;;;21.10;99.90;;;;;;5092841;28;20089;-74
2022/08/06 01:19:20;;;;;;;4.95;4.45;;;21.00;99.90;;;;;;5093798;28;20387;-77
2022/08/06 01:22:04;;;;;;;6.00;4.45;;;21.00;99.90;;;;;;5093819;28;20032;-75
2022/08/06 01:24:51;;;;;;;4.38;3.97;;;20.90;99.90;;;;;;5075626;28;20054;-75
2022/08/06 01:27:58;;;;;;;8.98;6.90;;;20.90;99.90;;;;;;5093510;28;20435;-75
2022/08/06 01:30:30;;;;;;;6.07;5.38;;;20.90;99.90;;;;;;5071511;28;20079;-74
2022/08/06 01:33:11;;;;;;;6.15;5.32;;;20.90;99.90;;;;;;5093248;28;20111;-78
2022/08/06 01:35:42;;;;;;;6.28;4.88;;;20.90;99.90;;;;;;5093470;28;20031;-75
2022/08/06 01:38:13;;;;;;;7.00;4.72;;;20.90;99.90;;;;;;5093383;28;20058;-74
2022/08/06 01:40:41;;;;;;;6.68;5.72;;;20.90;99.90;;;;;;5093639;28;20020;-76
2022/08/06 01:43:09;;;;;;;7.97;6.28;;;20.90;99.90;;;;;;5093184;28;20020;-76
2022/08/06 01:45:38;;;;;;;6.10;5.50;;;20.80;99.90;;;;;;5093434;28;20020;-74
2022/08/06 01:48:10;;;;;;;9.48;5.07;;;20.80;99.90;;;;;;5093085;28;20016;-75
2022/08/06 01:50:39;;;;;;;4.28;3.88;;;20.80;99.90;;;;;;5093308;28;20028;-77
2022/08/06 01:53:07;;;;;;;5.28;4.78;;;20.80;99.90;;;;;;5093255;28;20020;-75
2022/08/06 01:55:38;;;;;;;5.13;4.63;;;20.80;99.90;;;;;;5093305;28;20028;-76
2022/08/06 01:58:06;;;;;;;10.35;5.25;;;20.80;99.90;;;;;;5093061;28;20103;-74
2022/08/06 02:00:35;;;;;;;7.90;5.75;;;20.80;99.90;;;;;;5093115;28;20120;-74
2022/08/06 02:03:07;;;;;;;10.15;6.13;;;20.70;99.90;;;;;;5093087;28;20024;-74
2022/08/06 02:05:35;;;;;;;6.20;5.60;;;20.70;99.90;;;;;;5093171;28;20016;-75
2022/08/06 02:08:03;;;;;;;5.70;4.97;;;20.70;99.90;;;;;;5093026;28;20815;-75
2022/08/06 02:10:32;;;;;;;4.68;4.22;;;20.80;99.90;;;;;;5092890;28;20028;-77
2022/08/06 02:13:01;;;;;;;5.55;4.25;;;20.80;99.90;;;;;;5092737;28;20379;-75
2022/08/06 02:15:28;;;;;;;6.90;4.53;;;20.80;99.90;;;;;;5092718;28;20058;-76
2022/08/06 02:17:57;;;;;;;4.45;4.05;;;20.80;99.90;;;;;;5092702;28;20051;-75
2022/08/06 02:20:27;;;;;;;5.10;3.97;;;20.90;99.90;;;;;;5072624;28;20124;-75
2022/08/06 02:22:54;;;;;;;4.28;3.83;;;20.90;99.90;;;;;;5054755;28;20036;-74
2022/08/06 02:25:21;;;;;;;5.50;4.60;;;21.00;99.90;;;;;;5071808;28;20021;-74
2022/08/06 02:27:50;;;;;;;3.83;3.53;;;21.10;99.90;;;;;;5071790;28;20460;-77
2022/08/06 02:30:16;;;;;;;8.90;4.30;;;21.10;99.90;;;;;;5072392;28;20027;-75
2022/08/06 02:32:42;;;;;;;7.28;4.65;;;21.20;99.90;;;;;;5072525;28;20111;-75
2022/08/06 02:35:09;;;;;;;4.60;4.15;;;21.20;99.90;;;;;;5072495;28;20034;-75
2022/08/06 02:37:44;;;;;;;4.82;4.35;;;21.20;99.90;;;;;;5072165;28;20115;-74
2022/08/06 02:40:17;;;;;;;4.38;3.97;;;21.20;99.90;;;;;;5072157;28;20067;-76
2022/08/06 02:42:49;;;;;;;9.85;4.10;;;21.20;99.90;;;;;;5072183;28;20120;-76
2022/08/06 02:45:20;;;;;;;4.80;4.30;;;21.20;99.90;;;;;;5072088;28;20388;-74
2022/08/06 02:47:57;;;;;;;5.75;3.50;;;21.20;99.90;;;;;;5072258;28;20028;-76
2022/08/06 02:50:29;;;;;;;7.63;3.95;;;21.10;99.90;;;;;;5072110;28;20701;-76
2022/08/06 02:53:10;;;;;;;8.13;3.55;;;21.10;99.90;;;;;;5072357;28;20024;-77
2022/08/06 02:55:39;;;;;;;4.43;4.00;;;21.10;99.90;;;;;;5072156;28;20455;-74
2022/08/06 02:58:17;;;;;;;6.78;4.18;;;21.10;99.90;;;;;;5072099;28;20043;-77
2022/08/06 03:00:47;;;;;;;4.18;3.70;;;21.10;99.90;;;;;;5072143;28;20039;-76
2022/08/06 03:03:15;;;;;;;5.00;4.45;;;21.10;99.90;;;;;;5054488;28;20020;-77
2022/08/06 03:05:45;;;;;;;4.20;3.80;;;21.10;99.90;;;;;;5072156;28;20021;-76
2022/08/06 03:08:16;;;;;;;5.45;3.92;;;21.10;99.90;;;;;;5072027;28;20040;-75
2022/08/06 03:10:42;;;;;;;4.00;3.50;;;21.10;99.90;;;;;;5071984;28;20099;-76
2022/08/06 03:13:09;;;;;;;5.15;3.58;;;21.10;99.90;;;;;;5072059;28;20032;-75
2022/08/06 03:15:37;;;;;;;10.88;4.15;;;21.10;99.90;;;;;;5071651;28;20550;-75
2022/08/06 03:18:06;;;;;;;4.70;3.58;;;21.00;99.90;;;;;;5072637;28;20025;-76
2022/08/06 03:20:34;;;;;;;4.95;4.07;;;21.00;99.90;;;;;;5092326;28;20059;-76
2022/08/06 03:23:04;;;;;;;4.00;3.60;;;21.00;99.90;;;;;;5091945;28;20103;-74
2022/08/06 03:25:32;;;;;;;7.03;3.90;;;20.90;99.90;;;;;;5092180;28;20020;-75
2022/08/06 03:27:59;;;;;;;3.45;3.15;;;20.90;99.90;;;;;;5092045;28;20024;-76
2022/08/06 03:30:26;;;;;;;3.85;3.50;;;20.90;99.90;;;;;;5091919;28;20023;-77
2022/08/06 03:32:53;;;;;;;5.20;3.40;;;21.00;99.90;;;;;;5091928;28;20028;-76
2022/08/06 03:35:19;;;;;;;4.55;3.50;;;21.00;99.90;;;;;;5091958;28;20430;-75
2022/08/06 03:37:48;;;;;;;6.03;3.47;;;21.00;99.90;;;;;;5091413;28;20731;-77
2022/08/06 03:40:14;;;;;;;4.35;3.63;;;21.10;99.90;;;;;;5095919;28;20099;-75
2022/08/06 03:42:40;;;;;;;4.13;3.72;;;21.10;99.90;;;;;;5096072;28;20016;-75
2022/08/06 03:45:07;;;;;;;5.13;4.20;;;21.20;99.90;;;;;;5095743;28;20073;-77
2022/08/06 03:47:39;;;;;;;6.43;5.22;;;21.30;99.90;;;;;;5095594;28;20103;-76
2022/08/06 03:50:12;;;;;;;6.10;4.85;;;21.40;99.90;;;;;;5077319;28;20032;-77
2022/08/06 03:52:41;;;;;;;8.05;3.67;;;21.50;99.90;;;;;;5095614;28;20035;-76
2022/08/06 03:55:12;;;;;;;5.40;4.28;;;21.70;99.90;;;;;;5096837;28;20028;-79
2022/08/06 03:57:44;;;;;;;7.22;4.85;;;22.10;99.90;;;;;;5099744;28;20168;-78
2022/08/06 04:00:14;;;;;;;7.40;5.35;;;22.60;99.90;;;;;;5095781;28;20012;-77
2022/08/06 04:02:45;;;;;;;5.72;4.72;;;22.90;99.90;;;;;;5095223;28;20012;-77
2022/08/06 04:05:15;;;;;;;10.40;5.78;;;23.10;99.90;;;;;;5095344;28;20051;-77
2022/08/06 04:07:41;;;;;;;4.07;3.30;;;23.40;99.90;;;;;;5095133;28;20020;-79
2022/08/06 04:10:08;;;;;;;6.10;3.00;;;23.60;99.90;;;;;;5095145;28;20032;-81
2022/08/06 04:12:34;;;;;;;3.63;2.45;;;23.70;99.90;;;;;;5096295;28;20023;-79
2022/08/06 04:15:00;;;;;;;1.92;1.83;;;23.80;99.90;;;;;;5077683;28;20061;-80
2022/08/06 04:17:27;;;;;;;2.63;2.00;;;23.80;99.90;;;;;;5094752;28;20035;-80
2022/08/06 04:19:53;;;;;;;1.95;1.75;;;23.90;99.90;;;;;;5094918;28;20044;-81
2022/08/06 04:22:20;;;;;;;4.60;1.83;;;23.90;99.90;;;;;;5095234;28;20424;-79
2022/08/06 04:24:46;;;;;;;1.63;1.45;;;23.90;99.40;;;;;;5095022;28;20031;-80
2022/08/06 04:27:13;;;;;;;1.85;1.75;;;23.90;99.40;;;;;;5095126;28;20082;-78
2022/08/06 04:29:41;;;;;;;2.55;1.60;;;23.90;99.60;;;;;;5094582;28;20371;-78
2022/08/06 04:32:08;;;;;;;1.38;1.30;;;23.90;99.20;;;;;;5094888;28;20089;-80
2022/08/06 04:34:38;;;;;;;1.20;1.02;;;24.10;97.10;;;;;;5095120;28;20107;-80
2022/08/06 04:37:05;;;;;;;1.40;1.27;;;24.20;95.70;;;;;;5094812;28;20028;-79
2022/08/06 04:39:31;;;;;;;1.40;1.30;;;24.30;95.60;;;;;;5094693;28;20463;-80
2022/08/06 04:41:57;;;;;;;1.42;1.33;;;24.30;96.00;;;;;;5094845;28;20027;-78
2022/08/06 04:44:23;;;;;;;1.40;1.30;;;24.40;95.90;;;;;;5095009;28;20442;-78
2022/08/06 04:46:50;;;;;;;1.60;1.40;;;24.40;95.30;;;;;;5095042;28;20044;-79
2022/08/06 04:49:16;;;;;;;1.65;1.30;;;24.40;95.00;;;;;;5094592;28;20466;-79
2022/08/06 04:51:48;;;;;;;1.55;1.30;;;24.40;94.90;;;;;;5094645;28;20035;-79
2022/08/06 04:54:15;;;;;;;5.00;1.40;;;24.40;94.50;;;;;;5094720;28;20069;-77
2022/08/06 04:56:43;;;;;;;0.90;0.90;;;24.50;94.30;;;;;;5094495;28;20111;-78
2022/08/06 04:59:09;;;;;;;2.03;1.52;;;24.60;93.40;;;;;;5094655;28;20039;-80
2022/08/06 05:01:36;;;;;;;3.45;3.00;;;24.80;92.70;;;;;;5094448;28;20032;-78
2022/08/06 05:04:02;;;;;;;5.25;4.22;;;24.80;92.70;;;;;;5094419;28;20024;-78
2022/08/06 05:06:46;;;;;;;3.42;2.67;;;24.80;92.80;;;;;;5075990;28;20024;-80
2022/08/06 05:09:18;;;;;;;5.75;3.15;;;24.90;92.60;;;;;;5094316;28;20024;-79
2022/08/06 05:11:48;;;;;;;5.50;3.85;;;24.90;92.40;;;;;;5094424;28;20024;-81
2022/08/06 05:14:24;;;;;;;1.17;1.08;;;25.00;91.90;;;;;;5075959;28;20020;-77
2022/08/06 05:16:53;;;;;;;2.45;2.25;;;25.10;91.10;;;;;;5093794;28;20036;-81
2022/08/06 05:19:28;;;;;;;1.70;1.60;;;25.20;91.30;;;;;;5093918;28;20044;-78
2022/08/06 05:21:55;;;;;;;1.17;1.10;;;25.20;91.10;;;;;;5094119;28;20190;-80
2022/08/06 05:24:21;;;;;;;0.98;0.98;;;25.30;90.60;;;;;;5094604;28;20048;-77
2022/08/06 05:26:48;;;;;;;2.08;1.17;;;25.30;90.70;;;;;;5101301;28;20028;-76
2022/08/06 05:29:19;;;;;;;1.20;1.10;;;25.30;90.40;;;;;;5101818;28;20051;-76
2022/08/06 05:31:44;;;;;;;1.25;1.15;;;25.30;90.70;;;;;;5083518;28;20027;-76
2022/08/06 05:34:11;;;;;;;0.88;0.88;;;25.30;90.70;;;;;;5076486;28;20020;-80
2022/08/06 05:36:37;;;;;;;1.83;0.80;;;25.30;90.40;;;;;;5094370;28;20073;-79
2022/08/06 05:39:03;;;;;;;1.88;0.82;;;25.30;90.30;;;;;;5094556;28;20486;-79
2022/08/06 05:41:29;;;;;;;1.35;1.25;;;25.30;90.10;;;;;;5076153;28;20019;-79
2022/08/06 05:43:55;;;;;;;1.20;1.10;;;25.30;90.30;;;;;;5093879;28;20460;-80
2022/08/06 05:46:23;;;;;;;1.75;1.65;;;25.40;90.10;;;;;;5075496;28;20035;-79
2022/08/06 05:49:07;;;;;;;4.60;0.80;;;25.40;90.60;;;;;;5093585;28;20016;-80
2022/08/06 05:51:48;;;;;;;2.00;1.10;;;25.40;91.00;;;;;;5093630;28;20533;-81
2022/08/06 05:54:43;;;;;;;1.50;1.17;;;25.50;91.30;;;;;;5093535;28;20099;-80
2022/08/06 05:57:17;;;;;;;2.33;2.10;;;25.60;92.60;;;;;;5074437;28;20048;-80
2022/08/06 05:59:50;;;;;;;2.47;2.28;;;25.60;95.00;;;;;;5093899;28;20030;-81
2022/08/06 06:02:18;;;;;;;2.85;2.28;;;25.50;96.10;;;;;;5074885;28;20032;-81
2022/08/06 06:04:46;;;;;;;4.78;2.65;;;25.50;97.40;;;;;;5093182;28;20082;-78
2022/08/06 06:07:13;;;;;;;2.95;2.63;;;25.40;97.90;;;;;;5093169;28;20044;-80
2022/08/06 06:09:40;;;;;;;14.35;12.15;;;25.50;98.90;;;;;;5093294;28;20028;-78
2022/08/06 06:12:06;;;;;;;7.75;4.50;;;25.40;99.60;;;;;;5092846;28;20020;-80
2022/08/06 06:14:44;;;;;;;5.80;5.13;;;25.40;99.90;;;;;;5093005;28;20028;-78
2022/08/06 06:17:46;;;;;;;3.85;3.55;;;25.40;99.90;;;;;;5092615;28;20032;-80
2022/08/06 06:20:20;;;;;;;3.42;2.90;;;25.40;99.90;;;;;;5092987;28;20433;-78
2022/08/06 06:23:01;;;;;;;4.50;2.60;;;25.40;99.90;;;;;;5092918;28;20042;-76
2022/08/06 06:25:32;;;;;;;2.80;2.60;;;25.40;99.90;;;;;;5093087;28;20099;-79
2022/08/06 06:28:27;;;;;;;3.10;2.80;;;25.50;99.90;;;;;;5092666;28;20498;-80
2022/08/06 06:31:12;;;;;;;3.50;3.20;;;25.50;99.90;;;;;;5092909;28;20020;-79
2022/08/06 06:34:03;;;;;;;2.53;2.33;;;25.50;99.90;;;;;;5092600;28;20371;-78
2022/08/06 06:36:31;;;;;;;2.90;2.70;;;25.70;99.90;;;;;;5092237;28;20481;-81
2022/08/06 06:39:01;;;;;;;2.75;2.50;;;25.90;99.90;;;;;;5092661;28;20097;-80
2022/08/06 06:41:33;;;;;;;2.65;2.33;;;26.20;99.90;;;;;;5092166;28;20059;-80
2022/08/06 06:44:23;;;;;;;5.40;2.53;;;26.40;99.90;;;;;;5092498;28;20522;-79
2022/08/06 06:46:58;;;;;;;4.15;2.63;;;26.50;99.80;;;;;;5091822;28;20019;-77
2022/08/06 06:49:46;;;;;;;4.78;2.33;;;26.70;98.80;;;;;;5092503;28;20546;-77
2022/08/06 06:52:35;;;;;;;2.72;2.10;;;26.80;97.80;;;;;;5092177;28;20036;-74
2022/08/06 06:55:11;;;;;;;2.17;1.98;;;27.00;96.00;;;;;;5092493;28;20020;-77
2022/08/06 06:57:42;;;;;;;3.05;1.65;;;27.10;94.80;;;;;;5074474;28;20115;-79
2022/08/06 07:00:09;;;;;;;1.85;1.00;;;27.20;93.10;;;;;;5092315;28;20019;-80
2022/08/06 07:02:40;;;;;;;1.17;1.17;;;27.20;91.90;;;;;;5091979;28;20058;-79
2022/08/06 07:05:07;;;;;;;1.73;1.00;;;27.30;90.90;;;;;;5091749;28;20016;-80
2022/08/06 07:07:36;;;;;;;2.92;1.00;;;27.40;89.20;;;;;;5092209;28;20089;-77
2022/08/06 07:10:04;;;;;;;1.23;1.17;;;27.60;90.20;;;;;;5092460;28;20499;-80
2022/08/06 07:12:32;;;;;;;0.82;0.82;;;27.70;89.80;;;;;;5092569;28;20034;-79
2022/08/06 07:15:00;;;;;;;2.08;1.00;;;28.00;87.50;;;;;;5096034;28;20047;-80
2022/08/06 07:17:27;;;;;;;9.02;1.50;;;28.20;87.80;;;;;;5078252;28;20383;-80
2022/08/06 07:19:56;;;;;;;2.22;1.45;;;28.40;86.90;;;;;;5096402;28;20150;-80
2022/08/06 07:22:23;;;;;;;2.63;1.90;;;28.50;85.00;;;;;;5078475;28;20731;-80
2022/08/06 07:24:53;;;;;;;2.10;1.60;;;28.60;84.20;;;;;;5096544;28;20028;-80
2022/08/06 07:27:20;;;;;;;2.45;1.70;;;28.50;84.30;;;;;;5077963;28;20016;-79
2022/08/06 07:29:46;;;;;;;2.50;1.13;;;28.60;84.00;;;;;;5095861;28;20020;-79
2022/08/06 07:32:13;;;;;;;1.30;1.20;;;28.70;83.90;;;;;;5096489;28;20032;-79
2022/08/06 07:34:40;;;;;;;2.85;1.15;;;28.70;83.20;;;;;;5078179;28;20028;-79
2022/08/06 07:37:07;;;;;;;1.13;1.00;;;28.60;83.20;;;;;;5078215;28;20032;-78
2022/08/06 07:39:39;;;;;;;1.10;1.08;;;28.60;84.80;;;;;;5078420;28;20047;-78
2022/08/06 07:42:11;;;;;;;4.70;1.27;;;28.50;83.50;;;;;;5095951;28;20186;-78
2022/08/06 07:44:43;;;;;;;1.83;1.33;;;28.50;84.00;;;;;;5096444;28;20475;-77
2022/08/06 07:47:12;;;;;;;1.17;1.05;;;28.50;83.30;;;;;;5096545;28;20028;-76
2022/08/06 07:49:42;;;;;;;1.15;1.02;;;28.50;83.60;;;;;;5096020;28;20024;-75
2022/08/06 07:52:13;;;;;;;1.20;1.10;;;28.70;84.10;;;;;;5078047;28;20855;-79
2022/08/06 07:54:40;;;;;;;1.92;0.90;;;28.80;82.80;;;;;;5077953;28;20032;-79
2022/08/06 07:57:06;;;;;;;0.90;0.90;;;29.00;83.70;;;;;;5095379;28;20452;-78
2022/08/06 07:59:33;;;;;;;2.47;1.02;;;28.90;82.50;;;;;;5081171;28;20115;-78
2022/08/06 08:02:03;;;;;;;2.88;1.17;;;28.90;82.50;;;;;;5114859;28;20016;-76
2022/08/06 08:07:15;;;;;;;1.38;1.02;;;29.10;81.10;;;;;;5095777;28;20086;-80
2022/08/06 08:09:45;;;;;;;1.02;0.90;;;29.10;82.00;;;;;;5095921;28;20042;-77
2022/08/06 08:12:16;;;;;;;0.80;0.80;;;29.10;80.80;;;;;;5095905;28;20012;-81
2022/08/06 08:14:44;;;;;;;1.55;0.85;;;29.20;80.30;;;;;;5082774;28;20028;-78
2022/08/06 08:17:10;;;;;;;1.05;1.05;;;29.20;80.30;;;;;;5074075;28;20486;-79
2022/08/06 08:19:35;;;;;;;3.83;0.98;;;29.30;80.80;;;;;;5088259;28;20059;-77
2022/08/06 08:22:15;;;;;;;0.88;0.88;;;29.40;79.80;;;;;;5094641;28;20035;-78
2022/08/06 08:24:44;;;;;;;0.77;0.73;;;29.40;80.00;;;;;;5093581;28;20081;-79
2022/08/06 08:27:10;;;;;;;0.70;0.70;;;29.20;78.80;;;;;;5093830;28;20431;-79
2022/08/06 08:29:39;;;;;;;0.80;0.80;;;29.10;79.50;;;;;;5075924;28;20059;-79
2022/08/06 08:32:07;;;;;;;3.92;0.68;;;29.00;79.20;;;;;;5093984;28;20016;-79
2022/08/06 08:34:32;;;;;;;0.70;0.70;;;28.90;79.20;;;;;;5076223;28;20012;-79
2022/08/06 08:36:58;;;;;;;0.82;0.82;;;28.90;79.90;;;;;;5093415;28;20383;-80
2022/08/06 08:39:24;;;;;;;1.10;1.00;;;28.80;79.50;;;;;;5093637;28;20031;-80
2022/08/06 08:41:54;;;;;;;4.30;0.90;;;28.80;79.00;;;;;;5093916;28;20024;-78
2022/08/06 08:44:24;;;;;;;1.30;0.80;;;28.80;79.60;;;;;;5093696;28;20019;-78
2022/08/06 08:46:51;;;;;;;2.80;0.90;;;28.80;80.10;;;;;;5075995;28;20020;-78
2022/08/06 08:49:20;;;;;;;2.40;0.85;;;28.60;80.00;;;;;;5093729;28;20058;-78
2022/08/06 08:51:47;;;;;;;1.10;0.80;;;28.40;86.60;;;;;;5075694;28;20051;-78
2022/08/06 08:54:20;;;;;;;1.13;0.93;;;28.20;81.10;;;;;;5093149;28;20024;-78
2022/08/06 08:56:47;;;;;;;0.85;0.85;;;28.20;85.80;;;;;;5075181;28;20035;-78
2022/08/06 08:59:14;;;;;;;1.25;0.85;;;28.10;82.00;;;;;;5093540;28;20031;-79
2022/08/06 09:01:40;;;;;;;3.78;0.90;;;28.30;82.90;;;;;;5074609;28;20498;-79
2022/08/06 09:04:07;;;;;;;0.75;0.75;;;28.20;82.90;;;;;;5075037;28;20028;-80
2022/08/06 09:06:33;;;;;;;0.75;0.75;;;28.30;88.80;;;;;;5092983;28;20059;-77
2022/08/06 09:09:04;;;;;;;3.30;1.10;;;27.90;90.60;;;;;;5075581;28;20050;-79
2022/08/06 09:11:34;;;;;;;3.78;1.00;;;27.80;84.20;;;;;;5075670;28;20437;-77
2022/08/06 09:14:01;;;;;;;1.05;1.05;;;27.60;84.20;;;;;;5093511;28;20425;-78
2022/08/06 09:16:31;;;;;;;0.80;0.80;;;27.70;84.90;;;;;;5075086;28;20375;-76
2022/08/06 09:18:57;;;;;;;0.75;0.50;;;27.70;89.00;;;;;;5053548;28;1139833;-78
2022/08/06 09:21:22;;;;;;;0.60;0.60;;;27.50;99.90;;;;;;5094396;28;20055;-75
2022/08/06 09:23:48;;;;;;;0.70;0.70;;;27.20;89.40;;;;;;5094336;28;20020;-76
2022/08/06 09:26:14;;;;;;;0.60;0.60;;;27.80;86.60;;;;;;5093964;28;20040;-77
2022/08/06 09:28:42;;;;;;;0.70;0.70;;;27.80;85.10;;;;;;5075826;28;20371;-75
2022/08/06 09:31:10;;;;;;;2.78;0.77;;;27.80;83.80;;;;;;5094290;28;20024;-78
2022/08/06 09:33:38;;;;;;;2.92;1.08;;;27.70;83.70;;;;;;5094247;28;20031;-77
2022/08/06 09:36:07;;;;;;;1.67;0.60;;;27.50;84.80;;;;;;5092930;28;20051;-78
2022/08/06 09:38:51;;;;;;;1.00;0.90;;;27.60;85.20;;;;;;5093574;28;20099;-79
2022/08/06 09:41:19;;;;;;;0.60;0.60;;;27.80;84.90;;;;;;5093877;28;20023;-78
2022/08/06 09:43:48;;;;;;;1.13;0.50;;;28.40;83.30;;;;;;5093882;28;20028;-79
2022/08/06 09:46:15;;;;;;;0.57;0.57;;;28.40;83.20;;;;;;5093874;28;20042;-79
2022/08/06 09:49:01;;;;;;;0.60;0.60;;;28.30;83.80;;;;;;5075120;28;20024;-79
2022/08/06 09:51:27;;;;;;;0.60;0.60;;;28.30;82.50;;;;;;5093501;28;20020;-78
2022/08/06 09:53:54;;;;;;;0.95;0.50;;;28.20;82.80;;;;;;5093570;28;20029;-78
2022/08/06 09:56:20;;;;;;;1.33;0.68;;;;;;;;;;5093958;28;20032;-78
2022/08/06 09:58:47;;;;;;;1.52;0.65;;;27.80;82.30;;;;;;5075516;28;20485;-79
2022/08/06 10:01:23;;;;;;;0.45;0.43;;;27.60;83.50;;;;;;5100820;28;20016;-79
2022/08/06 10:03:57;;;;;;;0.30;0.30;;;27.40;83.90;;;;;;5093431;28;20027;-77
2022/08/06 10:06:23;;;;;;;0.30;0.30;;;27.20;84.70;;;;;;5092255;28;20042;-78
2022/08/06 10:09:04;;;;;;;0.52;0.52;;;27.10;85.60;;;;;;5092920;28;20020;-79
2022/08/06 10:11:41;;;;;;;0.40;0.40;;;27.10;85.50;;;;;;5092546;28;20031;-79
2022/08/06 10:14:30;;;;;;;0.77;0.43;;;26.90;86.80;;;;;;5092403;28;20020;-79
2022/08/06 10:17:09;;;;;;;0.50;0.35;;;26.70;87.70;;;;;;5074776;28;20062;-80
2022/08/06 10:19:43;;;;;;;0.35;0.35;;;26.70;88.40;;;;;;5092724;28;20048;-78
2022/08/06 10:22:11;;;;;;;0.20;0.20;;;26.60;89.30;;;;;;5093435;28;20093;-77
2022/08/06 10:24:44;;;;;;;0.63;0.50;;;26.60;89.60;;;;;;5092917;28;20490;-79
2022/08/06 10:27:12;;;;;;;0.38;0.38;;;26.50;90.00;;;;;;5092637;28;20105;-76
2022/08/06 10:29:41;;;;;;;0.32;0.32;;;26.50;91.00;;;;;;5092597;28;20028;-76
2022/08/06 10:32:12;;;;;;;0.57;0.57;;;26.10;90.30;;;;;;5073902;28;20756;-77
2022/08/06 10:34:39;;;;;;;3.05;0.60;;;26.00;90.80;;;;;;5074510;28;20024;-79
2022/08/06 10:37:07;;;;;;;0.63;0.63;;;25.90;90.90;;;;;;5092277;28;20032;-77
2022/08/06 10:39:42;;;;;;;1.60;0.70;;;25.90;91.20;;;;;;5092446;28;20323;-77
2022/08/06 10:42:08;;;;;;;0.73;0.73;;;26.10;90.70;;;;;;5092645;28;20503;-79
2022/08/06 10:44:36;;;;;;;0.90;0.90;;;26.00;90.50;;;;;;5092445;28;20587;-77
2022/08/06 10:47:02;;;;;;;1.70;1.58;;;25.80;91.10;;;;;;5092192;28;20089;-78
2022/08/06 10:49:30;;;;;;;1.00;0.77;;;26.10;91.00;;;;;;5074674;28;20378;-78
2022/08/06 10:51:56;;;;;;;2.25;0.80;;;26.30;90.90;;;;;;5092569;28;20028;-78
2022/08/06 10:54:22;;;;;;;0.90;0.90;;;26.50;90.50;;;;;;5074853;28;20340;-78
2022/08/06 10:56:48;;;;;;;0.75;0.75;;;26.40;90.50;;;;;;5073905;28;20059;-79
2022/08/06 10:59:15;;;;;;;0.75;0.75;;;26.30;90.40;;;;;;5093065;28;20062;-77
2022/08/06 11:01:51;;;;;;;0.68;0.68;;;26.10;90.50;;;;;;5095707;28;20085;-77
2022/08/06 11:04:53;;;;;;;0.80;0.80;;;26.10;91.40;;;;;;5093217;28;20024;-80
2022/08/06 11:07:37;;;;;;;0.80;0.80;;;26.10;90.90;;;;;;5092446;28;20364;-78
2022/08/06 11:10:21;;;;;;;0.60;0.60;;;26.10;90.80;;;;;;5092618;28;20020;-78
2022/08/06 11:12:50;;;;;;;0.93;0.93;;;26.00;90.90;;;;;;5074397;28;20055;-80
2022/08/06 11:15:16;;;;;;;0.75;0.52;;;26.10;91.20;;;;;;5074068;28;20012;-80
2022/08/06 11:17:53;;;;;;;0.50;0.50;;;26.20;90.90;;;;;;5092147;28;20032;-77
2022/08/06 11:20:37;;;;;;;0.68;0.55;;;26.20;90.90;;;;;;5092034;28;20835;-79
2022/08/06 11:23:23;;;;;;;0.52;0.52;;;26.30;90.90;;;;;;5092118;28;20032;-78
2022/08/06 11:25:51;;;;;;;0.77;0.60;;;26.10;90.50;;;;;;5091282;28;20445;-80
2022/08/06 11:28:27;;;;;;;1.27;0.70;;;26.00;91.00;;;;;;5073342;28;20079;-77
2022/08/06 11:30:55;;;;;;;0.63;0.63;;;26.10;90.90;;;;;;5092281;28;20016;-79
2022/08/06 11:33:41;;;;;;;0.57;0.57;;;26.20;90.90;;;;;;5074383;28;20028;-78
2022/08/06 11:36:09;;;;;;;0.57;0.50;;;26.30;90.80;;;;;;5091427;28;20035;-78
2022/08/06 11:38:46;;;;;;;0.60;0.45;;;26.30;90.70;;;;;;5091491;28;20012;-78
2022/08/06 11:41:17;;;;;;;0.68;0.68;;;26.30;90.50;;;;;;5089710;28;20028;-78
2022/08/06 11:43:43;;;;;;;1.65;0.70;;;26.20;90.70;;;;;;5091961;28;20035;-79
2022/08/06 11:46:21;;;;;;;0.20;0.20;;;26.20;90.70;;;;;;5091803;28;20093;-77
2022/08/06 11:48:59;;;;;;;0.35;0.35;;;25.90;90.60;;;;;;5092163;28;20103;-76
2022/08/06 11:51:44;;;;;;;0.38;0.38;;;25.70;90.50;;;;;;5091509;28;20027;-78
2022/08/06 11:54:23;;;;;;;0.10;0.10;;;25.60;90.60;;;;;;5091660;28;20482;-78
2022/08/06 11:57:01;;;;;;;0.22;0.22;;;25.30;90.90;;;;;;5073484;28;20131;-76
2022/08/06 12:00:09;;;;;;;2.50;0.20;;;25.10;91.40;;;;;;5092800;28;20475;-75
2022/08/06 12:02:41;;;;;;;0.20;0.20;;;25.00;91.40;;;;;;5095200;28;20024;-79
2022/08/06 12:05:27;;;;;;;0.10;0.10;;;25.10;91.70;;;;;;5095351;28;20020;-78
2022/08/06 12:08:15;;;;;;;0.32;0.32;;;25.10;91.30;;;;;;5095080;28;20028;-77
2022/08/06 12:11:19;;;;;;;1.08;0.20;;;25.30;91.30;;;;;;5094586;28;20043;-78
2022/08/06 12:13:45;;;;;;;0.30;0.17;;;25.50;91.00;;;;;;5095170;28;20016;-78
2022/08/06 12:16:34;;;;;;;0.15;0.15;;;25.50;90.40;;;;;;5095105;28;20028;-78
2022/08/06 12:19:03;;;;;;;0.20;0.20;;;25.50;90.30;;;;;;5094828;28;20082;-78
2022/08/06 12:21:29;;;;;;;0.40;0.40;;;25.50;90.70;;;;;;5094872;28;20035;-78
2022/08/06 12:23:55;;;;;;;4.30;0.38;;;25.60;90.40;;;;;;5095307;28;20031;-78
2022/08/06 12:26:22;;;;;;;1.35;0.40;;;25.50;88.90;;;;;;5095108;28;20524;-78
2022/08/06 12:28:49;;;;;;;0.50;0.50;;;25.30;90.00;;;;;;5094357;28;20471;-77
2022/08/06 12:31:28;;;;;;;0.20;0.20;;;25.10;89.90;;;;;;5095136;28;20527;-78
2022/08/06 12:33:54;;;;;;;0.20;0.20;;;25.00;90.50;;;;;;5094093;28;20027;-76
2022/08/06 12:36:19;;;;;;;0.30;0.30;;;25.10;90.70;;;;;;5094524;28;20044;-78
2022/08/06 12:38:54;;;;;;;0.25;0.25;;;25.00;90.60;;;;;;5094436;28;20499;-77
2022/08/06 12:41:20;;;;;;;0.35;0.35;;;25.10;90.70;;;;;;5095269;28;20035;-77
2022/08/06 12:43:45;;;;;;;0.40;0.40;;;25.00;90.20;;;;;;5076990;28;20025;-78
2022/08/06 12:46:11;;;;;;;0.88;0.25;;;25.00;90.20;;;;;;5076807;28;20025;-78
2022/08/06 12:48:44;;;;;;;0.57;0.40;;;25.10;90.70;;;;;;5094887;28;20032;-79
2022/08/06 12:51:13;;;;;;;0.75;0.28;;;25.10;90.60;;;;;;5076796;28;20370;-78
2022/08/06 12:53:56;;;;;;;0.28;0.28;;;25.00;90.50;;;;;;5094782;28;20107;-79
2022/08/06 12:56:24;;;;;;;0.30;0.30;;;25.10;90.40;;;;;;5094701;28;20475;-78
2022/08/06 12:58:52;;;;;;;0.40;0.40;;;25.30;90.40;;;;;;5094690;28;20467;-80
2022/08/06 13:01:23;;;;;;;0.20;0.20;;;25.60;88.60;;;;;;5076597;28;20370;-79
2022/08/06 13:03:53;;;;;;;0.60;0.20;;;25.60;88.70;;;;;;5094533;28;20012;-80
2022/08/06 13:06:22;;;;;;;0.30;0.30;;;25.40;88.40;;;;;;5094486;28;20031;-77
2022/08/06 13:08:49;;;;;;;1.25;0.30;;;25.40;88.80;;;;;;5094385;28;20055;-80